PDT,Max TemperatureF,Mean TemperatureF,Min TemperatureF,Max Dew PointF,MeanDew PointF,Min DewpointF,Max Humidity, Mean Humidity, Min Humidity, Max Sea Level PressureIn, Mean Sea Level PressureIn, Min Sea Level PressureIn, Max VisibilityMiles, Mean VisibilityMiles, Min VisibilityMiles, Max Wind SpeedMPH, Mean Wind SpeedMPH, Max Gust SpeedMPH,PrecipitationIn, CloudCover, Events, WindDirDegrees
2013-4-1,74,57,40,42,35,32,65,45,25,29.98,29.92,29.89,10,10,10,21,6,25,0.00,0,,329
2013-4-2,71,61,50,39,36,33,59,42,25,30.04,30.00,29.95,10,10,10,22,9,28,0.00,0,,282
2013-4-3,67,52,37,42,37,33,85,59,32,30.10,30.03,29.96,10,10,10,13,4,16,0.00,0,,35
2013-4-4,55,49,42,49,45,38,93,76,59,29.96,29.79,29.70,10,9,2,12,7,14,0.11,5,Rain,326
2013-4-5,66,53,39,45,42,38,100,69,37,29.82,29.79,29.74,10,9,1,23,10,29,T,3,Rain,215
2013-4-6,62,53,43,42,34,26,92,63,33,29.84,29.81,29.76,10,10,10,26,10,36,T,4,Rain,231
2013-4-7,54,47,40,45,38,24,100,70,39,29.77,29.60,29.47,10,9,5,22,10,31,0.29,6,Rain,213
2013-4-8,57,46,35,39,34,28,76,59,41,30.21,30.01,29.78,10,10,10,9,5,10,0.00,5,,19
2013-4-9,60,47,33,40,35,30,89,64,39,30.33,30.25,30.16,10,10,10,14,6,23,0.00,3,,97
2013-4-10,66,55,43,44,35,27,83,58,32,30.14,29.98,29.83,10,10,10,33,13,43,T,1,,272
2013-4-11,61,51,41,32,24,17,58,39,19,30.13,30.08,30.04,10,10,10,26,12,35,0.00,0,,273
2013-4-12,53,41,28,35,29,22,89,65,41,30.08,29.88,29.61,10,10,10,20,8,25,T,2,Rain,189
2013-4-13,56,45,34,31,22,17,82,53,24,29.83,29.73,29.59,10,10,10,32,19,39,0.00,0,,279
2013-4-14,53,40,27,33,26,19,82,56,29,29.92,29.89,29.85,10,10,7,21,6,25,0.03,4,Rain,322
2013-4-15,52,44,35,34,31,23,92,62,32,30.14,30.00,29.89,10,10,4,23,11,28,0.13,7,Rain,358
2013-4-16,54,41,27,27,18,12,81,51,20,30.37,30.28,30.16,10,10,10,20,9,25,0.00,2,,2
2013-4-17,58,41,24,27,22,18,81,52,22,30.45,30.38,30.31,10,10,10,15,5,20,0.00,2,,248
2013-4-18,64,50,35,43,33,27,70,52,34,30.33,30.25,30.12,10,10,10,15,5,21,T,2,Rain,224
2013-4-19,67,57,46,44,38,33,86,58,29,30.09,29.98,29.90,10,10,10,22,11,28,0.02,4,Rain,251
2013-4-20,66,55,43,34,31,27,70,47,24,30.09,30.04,30.01,10,10,10,29,17,35,0.00,0,,278
2013-4-21,58,49,39,39,31,26,66,51,35,30.27,30.13,30.07,10,10,10,29,12,35,0.05,2,Rain,337
2013-4-22,60,45,30,23,19,2,56,33,9,30.50,30.42,30.31,10,10,10,14,7,17,0.00,0,,321
2013-4-23,63,47,30,27,23,19,72,46,19,30.36,30.27,30.21,10,10,10,10,4,14,0.00,0,,33
2013-4-24,69,56,43,30,27,24,49,35,20,30.29,30.14,29.93,10,10,10,20,8,24,0.00,0,,248
2013-4-25,76,62,48,34,30,26,42,32,21,29.99,29.94,29.90,10,10,10,22,9,28,0.00,0,,285
2013-4-26,81,65,49,39,31,20,59,36,13,30.12,30.08,30.01,10,10,10,21,7,24,0.00,0,,262
2013-4-27,75,60,45,35,29,22,54,36,17,30.08,30.03,29.99,10,10,10,37,15,45,0.00,0,,251
2013-4-28,67,55,42,36,30,21,61,40,18,30.06,29.99,29.85,10,10,10,26,12,33,0.00,0,,258
2013-4-29,59,49,39,33,20,4,76,44,12,30.01,29.88,29.75,10,10,9,41,19,53,0.00,0,,287
2013-4-30,58,48,38,21,16,7,48,31,13,30.35,30.16,30.03,10,10,10,23,13,29,0.00,2,,310